createdAt,value
2023-04-19T00:01:32.242Z,100847.52
2023-04-19T00:04:20.607Z,100847.52
2023-04-19T00:07:07.950Z,100844.27
2023-04-19T00:09:54.499Z,100832.98
2023-04-19T00:12:40.974Z,100840.14
2023-04-19T00:15:27.980Z,100830.83
2023-04-19T00:18:14.678Z,100828.30
2023-04-19T00:21:02.266Z,100823.27
2023-04-19T00:23:49.012Z,100824.44
2023-04-19T00:26:35.423Z,100824.27
2023-04-19T00:29:22.665Z,100821.64
2023-04-19T00:32:09.389Z,100821.27
2023-04-19T00:34:57.545Z,100814.77
2023-04-19T00:37:44.517Z,100812.67
2023-04-19T00:40:33.496Z,100805.83
2023-04-19T00:43:20.900Z,100804.13
2023-04-19T00:46:07.734Z,100802.30
2023-04-19T00:48:55.104Z,100798.65
2023-04-19T00:51:42.011Z,100801.44
2023-04-19T00:54:30.864Z,100797.66
2023-04-19T00:57:17.825Z,100797.38
2023-04-19T01:00:09.465Z,100795.03
2023-04-19T01:02:56.279Z,100792.40
2023-04-19T01:05:42.651Z,100791.70
2023-04-19T01:08:32.334Z,100789.30
2023-04-19T01:11:18.615Z,100785.15
2023-04-19T01:14:05.173Z,100783.59
2023-04-19T01:16:52.527Z,100775.15
2023-04-19T01:19:39.197Z,100778.80
2023-04-19T01:22:27.703Z,100775.54
2023-04-19T01:25:14.071Z,100776.09
2023-04-19T01:28:02.533Z,100775.71
2023-04-19T01:30:53.470Z,100771.23
2023-04-19T01:33:40.100Z,100765.41
2023-04-19T01:36:29.078Z,100759.93
2023-04-19T01:39:16.141Z,100750.96
2023-04-19T01:42:02.513Z,100753.68
2023-04-19T01:44:49.986Z,100750.27
2023-04-19T01:47:36.652Z,100748.27
2023-04-19T01:50:23.153Z,100745.52
2023-04-19T01:53:11.413Z,100738.98
2023-04-19T01:55:57.941Z,100736.12
2023-04-19T01:58:46.839Z,100736.42
2023-04-19T02:01:35.182Z,100740.35
2023-04-19T02:04:22.800Z,100737.48
2023-04-19T02:07:09.139Z,100740.04
2023-04-19T02:09:55.326Z,100736.79
2023-04-19T02:12:42.425Z,100735.11
2023-04-19T02:15:30.522Z,100728.81
2023-04-19T02:18:17.933Z,100724.66
2023-04-19T02:21:09.083Z,100720.70
2023-04-19T02:23:55.415Z,100724.64
2023-04-19T02:26:41.675Z,100728.81
2023-04-19T02:29:27.860Z,100728.04
2023-04-19T02:32:14.312Z,100721.98
2023-04-19T02:35:00.967Z,100722.88
2023-04-19T02:37:48.856Z,100719.04
2023-04-19T02:40:35.407Z,100714.70
2023-04-19T02:43:21.872Z,100711.39
2023-04-19T02:46:09.922Z,100709.36
2023-04-19T02:48:56.373Z,100699.61
2023-04-19T02:51:42.762Z,100702.67
2023-04-19T02:54:29.976Z,100702.93
2023-04-19T02:57:16.620Z,100699.19
2023-04-19T03:00:06.146Z,100698.10
2023-04-19T03:02:53.137Z,100699.09
2023-04-19T03:05:40.413Z,100697.52
2023-04-19T03:08:27.081Z,100696.83
2023-04-19T03:11:17.268Z,100697.19
2023-04-19T03:14:03.877Z,100690.98
2023-04-19T03:16:50.477Z,100691.55
2023-04-19T03:19:38.738Z,100690.10
2023-04-19T03:22:25.466Z,100687.59
2023-04-19T03:25:13.700Z,100692.30
2023-04-19T03:28:02.394Z,100688.81
2023-04-19T03:31:08.634Z,100686.35
2023-04-19T03:33:55.745Z,100686.29
2023-04-19T03:36:46.734Z,100675.33
2023-04-19T03:39:35.359Z,100684.63
2023-04-19T03:42:23.502Z,100682.40
2023-04-19T03:45:31.183Z,100680.25
2023-04-19T03:48:17.712Z,100680.67
2023-04-19T03:51:07.058Z,100682.77
2023-04-19T03:53:54.266Z,100677.44
2023-04-19T03:56:41.240Z,100674.88
2023-04-19T03:59:28.337Z,100675.84
2023-04-19T04:02:15.346Z,100674.91
2023-04-19T04:05:03.993Z,100678.07
2023-04-19T04:07:51.259Z,100679.38
2023-04-19T04:10:38.386Z,100680.16
2023-04-19T04:13:25.435Z,100678.66
2023-04-19T04:16:21.926Z,100670.95
2023-04-19T04:19:09.871Z,100671.50
2023-04-19T04:21:59.724Z,100656.40
2023-04-19T04:24:47.422Z,100666.70
2023-04-19T04:27:56.306Z,100669.02
2023-04-19T04:30:45.509Z,100671.05
2023-04-19T04:33:32.186Z,100665.55
2023-04-19T04:36:29.446Z,100667.43
2023-04-19T04:39:17.661Z,100669.30
2023-04-19T04:42:07.436Z,100662.92
2023-04-19T04:44:57.843Z,100663.63
2023-04-19T04:47:45.805Z,100662.80
2023-04-19T04:50:32.778Z,100665.92
2023-04-19T04:53:21.820Z,100665.70
2023-04-19T04:56:08.877Z,100661.61
2023-04-19T04:58:56.506Z,100666.17
2023-04-19T05:01:48.604Z,100663.69
2023-04-19T05:04:35.735Z,100668.86
2023-04-19T05:07:26.447Z,100670.02
2023-04-19T05:10:13.588Z,100670.95
2023-04-19T05:13:05.382Z,100672.73
2023-04-19T05:15:52.472Z,100671.55
2023-04-19T05:18:41.632Z,100670.85
2023-04-19T05:21:28.454Z,100674.13
2023-04-19T05:24:15.848Z,100671.75
2023-04-19T05:27:04.606Z,100672.40
2023-04-19T05:29:53.236Z,100671.82
2023-04-19T05:32:42.849Z,100668.62
2023-04-19T05:35:33.717Z,100658.63
2023-04-19T05:38:26.988Z,100654.41
2023-04-19T05:41:20.444Z,100653.91
2023-04-19T05:44:09.430Z,100657.42
2023-04-19T05:46:56.060Z,100651.55
2023-04-19T05:50:05.386Z,100648.98
2023-04-19T05:52:56.039Z,100644.80
2023-04-19T05:55:48.309Z,100643.98
2023-04-19T05:58:35.208Z,100638.77
2023-04-19T06:01:23.624Z,100638.67
2023-04-19T06:04:11.039Z,100639.25
2023-04-19T06:06:59.344Z,100644.88
2023-04-19T06:09:45.995Z,100641.23
2023-04-19T06:12:32.415Z,100640.13
2023-04-19T06:15:21.925Z,100635.27
2023-04-19T06:18:18.653Z,100632.39
2023-04-19T06:21:06.384Z,100630.45
2023-04-19T06:23:56.453Z,100601.14
2023-04-19T06:26:44.041Z,100623.16
2023-04-19T06:29:30.269Z,100622.39
2023-04-19T06:32:17.212Z,100624.09
2023-04-19T06:35:05.885Z,100624.44
2023-04-19T06:37:52.266Z,100624.36
2023-04-19T06:40:38.563Z,100624.33
2023-04-19T06:43:27.238Z,100621.84
2023-04-19T06:46:14.536Z,100617.61
2023-04-19T06:49:01.706Z,100617.21
2023-04-19T06:51:48.975Z,100618.90
2023-04-19T06:54:35.763Z,100612.88
2023-04-19T06:57:25.519Z,100621.16
2023-04-19T07:00:13.238Z,100630.79
2023-04-19T07:03:00.927Z,100640.52
2023-04-19T07:05:52.177Z,100632.86
2023-04-19T07:08:48.816Z,100637.96
2023-04-19T07:11:36.166Z,100633.98
2023-04-19T07:14:23.338Z,100626.17
2023-04-19T07:17:09.490Z,100630.65
2023-04-19T07:19:55.923Z,100622.30
2023-04-19T07:22:42.499Z,100621.50
2023-04-19T07:25:28.882Z,100616.67
2023-04-19T07:28:15.574Z,100615.42
2023-04-19T07:31:02.222Z,100606.20
2023-04-19T07:33:50.361Z,100619.98
2023-04-19T07:36:37.259Z,100620.73
2023-04-19T07:39:24.352Z,100616.16
2023-04-19T07:42:11.557Z,100613.24
2023-04-19T07:44:59.028Z,100612.86
2023-04-19T07:47:45.918Z,100605.66
2023-04-19T07:50:34.389Z,100593.03
2023-04-19T07:53:20.763Z,100595.19
2023-04-19T07:56:08.480Z,100581.95
2023-04-19T07:59:06.968Z,100572.58
2023-04-19T08:01:55.344Z,100580.73
2023-04-19T08:04:42.567Z,100585.44
2023-04-19T08:07:33.037Z,100594.41
2023-04-19T08:10:20.710Z,100592.85
2023-04-19T08:13:08.622Z,100587.97
2023-04-19T08:18:45.700Z,100601.56
2023-04-19T08:21:40.677Z,100613.36
2023-04-19T08:24:28.233Z,100610.94
2023-04-19T08:27:15.116Z,100604.30
2023-04-19T08:30:02.895Z,100608.66
2023-04-19T08:32:49.546Z,100607.60
2023-04-19T08:35:40.781Z,100605.41
2023-04-19T08:38:27.052Z,100599.29
2023-04-19T08:41:14.825Z,100604.27
2023-04-19T08:44:02.978Z,100619.50
2023-04-19T08:46:50.062Z,100621.25
2023-04-19T08:49:41.371Z,100617.68
2023-04-19T08:52:32.931Z,100615.84
2023-04-19T08:55:20.562Z,100616.12
2023-04-19T08:58:12.297Z,100622.25
2023-04-19T09:01:07.793Z,100622.42
2023-04-19T09:04:01.361Z,100619.42
2023-04-19T09:06:55.188Z,100621.43
2023-04-19T09:09:55.674Z,100612.84
2023-04-19T09:13:05.576Z,100608.23
2023-04-19T09:15:56.699Z,100612.45
2023-04-19T09:19:11.409Z,100614.28
2023-04-19T09:22:15.352Z,100608.86
2023-04-19T09:28:16.426Z,100601.77
2023-04-19T09:31:38.897Z,100608.16
2023-04-19T09:34:23.982Z,100610.34
2023-04-19T09:37:18.904Z,100607.70
2023-04-19T09:40:25.244Z,100603.80
2023-04-19T09:46:04.268Z,100611.16
2023-04-19T09:48:51.254Z,100598.73
2023-04-19T09:51:41.960Z,100600.02
2023-04-19T09:54:29.395Z,100599.48
2023-04-19T09:57:16.388Z,100597.79
2023-04-19T10:00:06.878Z,100596.83
2023-04-19T10:03:00.031Z,100591.45
2023-04-19T10:05:46.552Z,100591.52
2023-04-19T10:08:33.199Z,100591.58
2023-04-19T10:11:26.778Z,100593.64
2023-04-19T10:14:16.055Z,100597.96
2023-04-19T10:17:02.855Z,100601.14
2023-04-19T10:20:06.110Z,100603.00
2023-04-19T10:22:52.706Z,100603.67
2023-04-19T10:25:40.384Z,100604.80
2023-04-19T10:28:30.414Z,100626.35
2023-04-19T10:31:23.151Z,100628.33
2023-04-19T10:34:12.490Z,100619.36
2023-04-19T10:36:59.149Z,100616.39
2023-04-19T10:39:45.458Z,100606.35
2023-04-19T10:43:13.633Z,100600.88
2023-04-19T10:46:15.343Z,100590.09
2023-04-19T10:49:04.654Z,100587.15
2023-04-19T10:51:57.521Z,100583.10
2023-04-19T10:54:44.751Z,100576.49
2023-04-19T10:58:08.359Z,100576.67
2023-04-19T11:01:39.909Z,100579.79
2023-04-19T11:04:29.420Z,100579.55
2023-04-19T11:07:20.849Z,100577.80
2023-04-19T11:10:09.529Z,100584.97
2023-04-19T11:12:57.247Z,100582.70
2023-04-19T11:15:43.620Z,100583.16
2023-04-19T11:18:30.589Z,100578.30
2023-04-19T11:21:20.835Z,100578.75
2023-04-19T11:24:07.949Z,100580.16
2023-04-19T11:26:57.120Z,100575.44
2023-04-19T11:29:43.961Z,100575.27
2023-04-19T11:32:31.674Z,100573.34
2023-04-19T11:35:21.280Z,100575.52
2023-04-19T11:38:49.637Z,100569.03
2023-04-19T11:41:39.445Z,100570.27
2023-04-19T11:44:26.437Z,100565.73
2023-04-19T11:47:12.943Z,100567.20
2023-04-19T11:50:37.610Z,100560.35
2023-04-19T11:53:26.722Z,100553.10
2023-04-19T11:56:14.700Z,100550.42
2023-04-19T11:59:01.202Z,100554.98
2023-04-19T12:01:47.394Z,100553.48
2023-04-19T12:04:34.555Z,100548.95
2023-04-19T12:07:21.485Z,100551.29
2023-04-19T12:10:11.731Z,100546.20
2023-04-19T12:12:58.909Z,100542.29
2023-04-19T12:15:46.321Z,100541.30
2023-04-19T12:18:51.037Z,100539.27
2023-04-19T12:21:37.613Z,100538.05
2023-04-19T12:24:23.695Z,100538.94
2023-04-19T12:27:10.963Z,100537.20
2023-04-19T12:29:58.507Z,100534.86
2023-04-19T12:32:44.638Z,100532.70
2023-04-19T12:35:33.545Z,100537.61
2023-04-19T12:38:19.804Z,100533.27
2023-04-19T12:41:06.189Z,100534.69
2023-04-19T12:43:52.637Z,100532.34
2023-04-19T12:46:38.944Z,100527.04
2023-04-19T12:49:25.226Z,100522.65
2023-04-19T12:52:11.472Z,100520.80
2023-04-19T12:54:57.911Z,100526.34
2023-04-19T12:57:44.193Z,100525.58
2023-04-19T13:00:30.535Z,100529.89
2023-04-19T13:03:16.841Z,100530.45
2023-04-19T13:06:04.060Z,100534.60
2023-04-19T13:08:51.013Z,100534.64
2023-04-19T13:11:37.499Z,100534.73
2023-04-19T13:14:28.476Z,100530.71
2023-04-19T13:17:15.061Z,100533.13
2023-04-19T13:20:01.511Z,100527.71
2023-04-19T13:22:47.636Z,100527.01
2023-04-19T13:25:35.116Z,100530.30
2023-04-19T13:28:22.020Z,100529.73
2023-04-19T13:31:08.457Z,100523.36
2023-04-19T13:33:55.085Z,100531.64
2023-04-19T13:36:41.676Z,100537.81
2023-04-19T13:39:28.193Z,100542.27
2023-04-19T13:42:15.154Z,100538.42
2023-04-19T13:45:02.702Z,100538.99
2023-04-19T13:47:51.241Z,100537.14
2023-04-19T13:50:39.019Z,100534.05
2023-04-19T13:53:27.021Z,100526.60
2023-04-19T13:56:14.600Z,100526.45
2023-04-19T13:59:00.724Z,100525.63
2023-04-19T14:01:47.166Z,100518.33
2023-04-19T14:04:33.529Z,100521.27
2023-04-19T14:07:23.075Z,100518.49
2023-04-19T14:10:26.682Z,100519.88
2023-04-19T14:13:41.230Z,100520.27
2023-04-19T14:16:41.591Z,100521.73
2023-04-19T14:19:39.411Z,100518.60
2023-04-19T14:22:38.533Z,100516.79
2023-04-19T14:25:29.876Z,100511.06
2023-04-19T14:28:17.662Z,100519.23
2023-04-19T14:31:04.154Z,100519.48
2023-04-19T14:33:52.961Z,100520.86
2023-04-19T14:36:46.306Z,100522.41
2023-04-19T14:39:33.948Z,100522.42
2023-04-19T14:42:23.126Z,100521.41
2023-04-19T14:45:09.971Z,100523.63
2023-04-19T14:47:56.597Z,100524.05
2023-04-19T14:50:43.146Z,100529.88
2023-04-19T14:53:29.891Z,100529.52
2023-04-19T14:56:17.011Z,100532.98
2023-04-19T14:59:09.273Z,100527.09
2023-04-19T15:01:58.708Z,100527.68
2023-04-19T15:04:45.970Z,100528.11
2023-04-19T15:07:32.482Z,100529.23
2023-04-19T15:10:19.664Z,100527.74
2023-04-19T15:13:05.927Z,100527.41
2023-04-19T15:15:52.472Z,100528.48
2023-04-19T15:18:39.253Z,100532.30
2023-04-19T15:21:27.763Z,100527.14
2023-04-19T15:24:14.729Z,100525.69
2023-04-19T15:27:03.502Z,100520.73
2023-04-19T15:29:49.997Z,100521.73
2023-04-19T15:32:38.060Z,100522.55
2023-04-19T15:35:24.999Z,100523.83
2023-04-19T15:38:11.722Z,100523.52
2023-04-19T15:41:00.562Z,100519.65
2023-04-19T15:43:47.722Z,100523.45
2023-04-19T15:46:35.180Z,100519.51
2023-04-19T15:49:22.143Z,100521.34
2023-04-19T15:52:08.717Z,100516.03
2023-04-19T15:54:55.421Z,100519.20
2023-04-19T15:57:43.361Z,100518.45
2023-04-19T16:00:30.481Z,100522.46
2023-04-19T16:03:19.044Z,100520.22
2023-04-19T16:06:05.307Z,100522.98
2023-04-19T16:08:52.287Z,100522.94
2023-04-19T16:11:39.388Z,100521.86
2023-04-19T16:14:25.896Z,100518.67
2023-04-19T16:17:12.888Z,100515.60
2023-04-19T16:20:00.378Z,100515.98
2023-04-19T16:22:49.078Z,100511.47
2023-04-19T16:25:35.424Z,100516.73
2023-04-19T16:28:22.701Z,100512.06
2023-04-19T16:31:10.543Z,100514.11
2023-04-19T16:33:57.141Z,100512.45
2023-04-19T16:36:46.916Z,100508.23
2023-04-19T16:39:33.090Z,100507.06
2023-04-19T16:42:19.240Z,100505.86
2023-04-19T16:45:08.669Z,100508.98
2023-04-19T16:47:54.861Z,100504.81
2023-04-19T16:50:41.388Z,100511.32
2023-04-19T16:53:27.788Z,100509.42
2023-04-19T16:56:17.080Z,100512.09
2023-04-19T16:59:03.323Z,100511.16
2023-04-19T17:01:53.343Z,100513.75
2023-04-19T17:04:42.396Z,100512.71
2023-04-19T17:07:28.959Z,100513.45
2023-04-19T17:10:15.878Z,100512.10
2023-04-19T17:13:02.700Z,100513.91
2023-04-19T17:15:50.182Z,100518.48
2023-04-19T17:18:38.871Z,100518.71
2023-04-19T17:21:25.497Z,100515.69
2023-04-19T17:24:12.916Z,100517.27
2023-04-19T17:27:00.305Z,100515.13
2023-04-19T17:29:46.535Z,100510.77
2023-04-19T17:32:33.015Z,100506.20
2023-04-19T17:35:19.597Z,100515.63
2023-04-19T17:38:05.894Z,100518.30
2023-04-19T17:40:53.371Z,100526.47
2023-04-19T17:43:39.677Z,100531.98
2023-04-19T17:46:25.952Z,100535.14
2023-04-19T17:49:12.931Z,100540.20
2023-04-19T17:51:59.745Z,100538.95
2023-04-19T17:54:46.046Z,100540.50
2023-04-19T17:57:33.638Z,100540.39
2023-04-19T18:00:20.156Z,100541.68
2023-04-19T18:03:10.272Z,100540.52
2023-04-19T18:05:56.717Z,100541.70
2023-04-19T18:08:45.416Z,100544.11
2023-04-19T18:11:31.751Z,100539.04
2023-04-19T18:14:18.400Z,100549.41
2023-04-19T18:17:05.587Z,100550.52
2023-04-19T18:19:52.118Z,100557.30
2023-04-19T18:22:40.077Z,100558.98
2023-04-19T18:25:26.660Z,100559.73
2023-04-19T18:28:13.875Z,100564.50
2023-04-19T18:31:01.433Z,100562.07
2023-04-19T18:33:48.788Z,100565.46
2023-04-19T18:36:35.226Z,100568.61
2023-04-19T18:39:22.952Z,100568.68
2023-04-19T18:42:14.081Z,100565.50
2023-04-19T18:45:01.889Z,100572.84
2023-04-19T18:47:48.486Z,100568.90
2023-04-19T18:50:37.985Z,100569.88
2023-04-19T18:53:28.007Z,100599.52
2023-04-19T18:56:14.583Z,100659.69
2023-04-19T18:59:01.646Z,100614.89
2023-04-19T19:01:48.798Z,100649.27
2023-04-19T19:04:51.305Z,100667.42
2023-04-19T19:07:44.144Z,100621.75
2023-04-19T19:11:06.680Z,100616.27
2023-04-19T19:13:39.331Z,100635.65
2023-04-19T19:16:25.592Z,100635.83
2023-04-19T19:19:12.409Z,100636.64
2023-04-19T19:21:59.034Z,100647.55
2023-04-19T19:24:45.830Z,100646.27
2023-04-19T19:27:35.646Z,100641.65
2023-04-19T19:30:25.041Z,100638.17
2023-04-19T19:33:12.815Z,100636.13
2023-04-19T19:35:59.257Z,100639.44
2023-04-19T19:38:46.294Z,100633.72
2023-04-19T19:42:03.373Z,100634.23
2023-04-19T19:44:42.035Z,100640.85
2023-04-19T19:47:34.665Z,100634.77
2023-04-19T19:53:11.234Z,100642.66
2023-04-19T19:55:59.381Z,100639.70
2023-04-19T19:58:50.098Z,100643.54
2023-04-19T20:01:38.085Z,100645.91
2023-04-19T20:04:25.983Z,100638.66
2023-04-19T20:10:02.484Z,100636.02
2023-04-19T20:12:48.380Z,100637.27
2023-04-19T20:15:37.382Z,100640.66
2023-04-19T20:18:23.551Z,100645.30
2023-04-19T20:21:09.758Z,100648.16
2023-04-19T20:23:56.583Z,100651.60
2023-04-19T20:26:43.660Z,100652.30
2023-04-19T20:29:31.433Z,100647.40
2023-04-19T20:32:18.226Z,100642.06
2023-04-19T20:35:09.489Z,100641.16
2023-04-19T20:38:02.101Z,100634.42
2023-04-19T20:40:48.565Z,100639.38
2023-04-19T20:43:34.817Z,100638.30
2023-04-19T20:46:21.402Z,100635.58
2023-04-19T20:49:08.363Z,100635.47
2023-04-19T20:51:55.886Z,100633.27
2023-04-19T20:54:42.536Z,100633.50
2023-04-19T20:57:28.758Z,100631.17
2023-04-19T21:00:16.195Z,100631.95
2023-04-19T21:03:05.453Z,100633.45
2023-04-19T21:06:00.414Z,100639.16
2023-04-19T21:08:51.317Z,100669.52
2023-04-19T21:11:37.785Z,100682.41
2023-04-19T21:14:24.400Z,100689.73
2023-04-19T21:17:11.846Z,100677.90
2023-04-19T21:19:58.334Z,100661.08
2023-04-19T21:22:46.515Z,100667.94
2023-04-19T21:25:32.986Z,100657.44
2023-04-19T21:28:19.910Z,100650.73
2023-04-19T21:31:09.311Z,100651.23
2023-04-19T21:33:55.768Z,100652.73
2023-04-19T21:36:42.094Z,100650.00
2023-04-19T21:39:28.468Z,100642.79
2023-04-19T21:42:14.841Z,100643.36
2023-04-19T21:45:02.085Z,100657.65
2023-04-19T21:47:48.577Z,100654.94
2023-04-19T21:50:34.724Z,100657.15
2023-04-19T21:53:21.063Z,100661.05
2023-04-19T21:56:08.730Z,100655.02
2023-04-19T21:58:55.105Z,100654.64
2023-04-19T22:01:42.522Z,100643.83
2023-04-19T22:04:30.253Z,100641.04
2023-04-19T22:07:19.173Z,100638.27
2023-04-19T22:10:07.715Z,100648.69
2023-04-19T22:12:58.404Z,100642.65
2023-04-19T22:15:45.447Z,100637.00
2023-04-19T22:18:34.043Z,100640.42
2023-04-19T22:21:24.127Z,100647.34
2023-04-19T22:24:13.075Z,100632.15
2023-04-19T22:27:01.302Z,100637.31
2023-04-19T22:29:48.261Z,100641.11
2023-04-19T22:32:38.351Z,100657.29
2023-04-19T22:35:25.444Z,100666.36
2023-04-19T22:38:11.778Z,100657.30
2023-04-19T22:40:58.283Z,100648.11
2023-04-19T22:43:44.897Z,100651.91
2023-04-19T22:46:32.342Z,100646.63
2023-04-19T22:49:21.556Z,100637.29
2023-04-19T22:52:08.486Z,100627.98
2023-04-19T22:54:54.999Z,100634.59
2023-04-19T22:57:42.511Z,100638.78
2023-04-19T23:00:28.935Z,100634.27
2023-04-19T23:03:16.656Z,100625.61
2023-04-19T23:06:03.885Z,100624.74
2023-04-19T23:08:51.925Z,100634.33
2023-04-19T23:11:40.147Z,100633.60
2023-04-19T23:14:28.752Z,100639.80
2023-04-19T23:17:16.802Z,100635.59
2023-04-19T23:20:04.935Z,100631.63
2023-04-19T23:22:52.821Z,100631.48
2023-04-19T23:25:40.653Z,100631.70
2023-04-19T23:28:27.451Z,100623.88
2023-04-19T23:31:14.809Z,100621.70
2023-04-19T23:34:02.299Z,100618.91
2023-04-19T23:36:48.988Z,100612.00
2023-04-19T23:39:35.642Z,100605.30
2023-04-19T23:42:22.390Z,100605.77
2023-04-19T23:45:09.750Z,100614.48
2023-04-19T23:47:57.709Z,100615.47
2023-04-19T23:50:46.980Z,100625.75
2023-04-19T23:53:34.578Z,100624.20
2023-04-19T23:56:21.624Z,100622.52
2023-04-19T23:59:08.286Z,100621.25
